RUK32T EGAA-EGPH
Flight info
| Callsign | RUK32T |
|---|---|
| Flight time | 0h 29m |
| Altitude | 17000 |
| Route | DCT BLACA P600 TUNSO TUNSO1E |
| Aircraft | B738/M-SDE2E3FGHIRWXY/LB1 |
Departure
| Time | 2026-05-06 17:18 |
|---|---|
| Airport | Belfast International Airport (EGAA) |
Arrival
| Time | 2026-05-06 17:47 |
|---|---|
| Airport | Edinburgh Airport (EGPH) |
| Time | Latitude | Longitude | Altitude | Speed | Heading |
|---|---|---|---|---|---|
| 2026-05-06 16:49 | 54.66079 | -6.21647 | 273 ft | 0 kts | 335° |
| 2026-05-06 17:06 | 54.66072 | -6.21641 | 271 ft | 4 kts | 335° |
| 2026-05-06 17:06 | 54.66048 | -6.21621 | 274 ft | 4 kts | 335° |
| 2026-05-06 17:06 | 54.66023 | -6.21602 | 271 ft | 4 kts | 335° |
| 2026-05-06 17:07 | 54.65999 | -6.21582 | 271 ft | 4 kts | 335° |
| 2026-05-06 17:07 | 54.65978 | -6.21566 | 271 ft | 4 kts | 340° |
| 2026-05-06 17:07 | 54.65953 | -6.21557 | 271 ft | 4 kts | 13° |
| 2026-05-06 17:07 | 54.65933 | -6.21579 | 271 ft | 4 kts | 59° |
| 2026-05-06 17:08 | 54.65921 | -6.21621 | 271 ft | 4 kts | 67° |
| 2026-05-06 17:08 | 54.65911 | -6.21661 | 271 ft | 4 kts | 65° |
| 2026-05-06 17:08 | 54.65900 | -6.21703 | 271 ft | 4 kts | 65° |
| 2026-05-06 17:08 | 54.65892 | -6.21730 | 271 ft | 0 kts | 65° |
| 2026-05-06 17:10 | 54.65893 | -6.21727 | 271 ft | 1 kts | 65° |
| 2026-05-06 17:10 | 54.65900 | -6.21701 | 274 ft | 4 kts | 65° |
| 2026-05-06 17:11 | 54.65916 | -6.21643 | 273 ft | 7 kts | 65° |
| 2026-05-06 17:11 | 54.65940 | -6.21553 | 271 ft | 10 kts | 65° |
| 2026-05-06 17:11 | 54.65971 | -6.21439 | 275 ft | 12 kts | 65° |
| 2026-05-06 17:11 | 54.66008 | -6.21299 | 271 ft | 14 kts | 65° |
| 2026-05-06 17:12 | 54.66049 | -6.21147 | 271 ft | 14 kts | 65° |
| 2026-05-06 17:12 | 54.66088 | -6.21001 | 271 ft | 13 kts | 65° |
| 2026-05-06 17:12 | 54.66126 | -6.20861 | 271 ft | 13 kts | 65° |
| 2026-05-06 17:12 | 54.66163 | -6.20724 | 271 ft | 12 kts | 65° |
| 2026-05-06 17:13 | 54.66199 | -6.20591 | 271 ft | 12 kts | 65° |
| 2026-05-06 17:13 | 54.66235 | -6.20457 | 271 ft | 13 kts | 65° |
| 2026-05-06 17:13 | 54.66274 | -6.20313 | 274 ft | 13 kts | 65° |
| 2026-05-06 17:13 | 54.66311 | -6.20175 | 271 ft | 13 kts | 65° |
| 2026-05-06 17:14 | 54.66348 | -6.20039 | 271 ft | 12 kts | 65° |
| 2026-05-06 17:14 | 54.66384 | -6.19906 | 271 ft | 12 kts | 65° |
| 2026-05-06 17:14 | 54.66389 | -6.19768 | 271 ft | 12 kts | 110° |
| 2026-05-06 17:14 | 54.66366 | -6.19718 | 271 ft | 0 kts | 143° |
| 2026-05-06 17:15 | 54.66364 | -6.19715 | 271 ft | 2 kts | 144° |
| 2026-05-06 17:16 | 54.66328 | -6.19683 | 271 ft | 9 kts | 155° |
| 2026-05-06 17:16 | 54.66262 | -6.19684 | 273 ft | 11 kts | 228° |
| 2026-05-06 17:16 | 54.66237 | -6.19767 | 271 ft | 0 kts | 245° |
| 2026-05-06 17:16 | 54.66237 | -6.19768 | 271 ft | 0 kts | 245° |
| 2026-05-06 17:17 | 54.66226 | -6.19811 | 271 ft | 19 kts | 245° |
| 2026-05-06 17:17 | 54.66063 | -6.20412 | 273 ft | 90 kts | 245° |
| 2026-05-06 17:17 | 54.65705 | -6.21726 | 272 ft | 149 kts | 245° |
| 2026-05-06 17:17 | 54.65235 | -6.23526 | 624 ft | 167 kts | 241° |
| 2026-05-06 17:18 | 54.64687 | -6.25176 | 1509 ft | 154 kts | 221° |
| 2026-05-06 17:18 | 54.63757 | -6.26014 | 2119 ft | 151 kts | 181° |
| 2026-05-06 17:18 | 54.62784 | -6.25510 | 2757 ft | 154 kts | 143° |
| 2026-05-06 17:18 | 54.62231 | -6.23898 | 3287 ft | 169 kts | 106° |
| 2026-05-06 17:19 | 54.62328 | -6.21759 | 3697 ft | 195 kts | 73° |
| 2026-05-06 17:19 | 54.62874 | -6.19537 | 4037 ft | 213 kts | 68° |
| 2026-05-06 17:19 | 54.63515 | -6.17085 | 4211 ft | 234 kts | 68° |
| 2026-05-06 17:19 | 54.64205 | -6.14439 | 4455 ft | 250 kts | 68° |
| 2026-05-06 17:20 | 54.64918 | -6.11664 | 4923 ft | 254 kts | 68° |
| 2026-05-06 17:20 | 54.65620 | -6.08871 | 5522 ft | 255 kts | 68° |
| 2026-05-06 17:20 | 54.66330 | -6.06021 | 5984 ft | 265 kts | 68° |
| 2026-05-06 17:20 | 54.67082 | -6.02981 | 6394 ft | 281 kts | 68° |
| 2026-05-06 17:21 | 54.67846 | -5.99874 | 7143 ft | 283 kts | 68° |
| 2026-05-06 17:21 | 54.68621 | -5.96692 | 7721 ft | 293 kts | 67° |
| 2026-05-06 17:21 | 54.69401 | -5.93445 | 8541 ft | 293 kts | 67° |
| 2026-05-06 17:21 | 54.70180 | -5.90161 | 9255 ft | 299 kts | 67° |
| 2026-05-06 17:22 | 54.70964 | -5.86805 | 10022 ft | 302 kts | 68° |
| 2026-05-06 17:22 | 54.71760 | -5.83365 | 10471 ft | 318 kts | 68° |
| 2026-05-06 17:22 | 54.72620 | -5.79674 | 10645 ft | 342 kts | 65° |
| 2026-05-06 17:22 | 54.73630 | -5.75805 | 10823 ft | 364 kts | 65° |
| 2026-05-06 17:23 | 54.74657 | -5.71695 | 11166 ft | 378 kts | 66° |
| 2026-05-06 17:23 | 54.75679 | -5.67523 | 11780 ft | 384 kts | 66° |
| 2026-05-06 17:23 | 54.76723 | -5.63250 | 12503 ft | 387 kts | 66° |
| 2026-05-06 17:23 | 54.77779 | -5.58937 | 13225 ft | 391 kts | 66° |
| 2026-05-06 17:24 | 54.78848 | -5.54586 | 13939 ft | 395 kts | 66° |
| 2026-05-06 17:24 | 54.79930 | -5.50183 | 14603 ft | 399 kts | 66° |
| 2026-05-06 17:24 | 54.81022 | -5.45740 | 15273 ft | 403 kts | 66° |
| 2026-05-06 17:24 | 54.82127 | -5.41236 | 15937 ft | 408 kts | 66° |
| 2026-05-06 17:25 | 54.83238 | -5.36700 | 16636 ft | 411 kts | 66° |
| 2026-05-06 17:25 | 54.84361 | -5.32108 | 17000 ft | 417 kts | 66° |
| 2026-05-06 17:25 | 54.85512 | -5.27390 | 17006 ft | 432 kts | 66° |
| 2026-05-06 17:25 | 54.86706 | -5.22525 | 17013 ft | 443 kts | 64° |
| 2026-05-06 17:26 | 54.88280 | -5.17941 | 17007 ft | 442 kts | 49° |
| 2026-05-06 17:26 | 54.90456 | -5.14234 | 17030 ft | 435 kts | 35° |
| 2026-05-06 17:26 | 54.93019 | -5.11538 | 17015 ft | 430 kts | 23° |
| 2026-05-06 17:26 | 54.95684 | -5.09350 | 17012 ft | 429 kts | 22° |
| 2026-05-06 17:27 | 54.98381 | -5.07112 | 16997 ft | 429 kts | 23° |
| 2026-05-06 17:27 | 55.01059 | -5.04841 | 17015 ft | 429 kts | 24° |
| 2026-05-06 17:27 | 55.03738 | -5.02529 | 17015 ft | 431 kts | 24° |
| 2026-05-06 17:27 | 55.06423 | -5.00192 | 17012 ft | 432 kts | 24° |
| 2026-05-06 17:28 | 55.09042 | -4.97841 | 16997 ft | 433 kts | 27° |
| 2026-05-06 17:28 | 55.11508 | -4.94788 | 17017 ft | 436 kts | 39° |
| 2026-05-06 17:28 | 55.13704 | -4.91115 | 17013 ft | 437 kts | 43° |
| 2026-05-06 17:28 | 55.15838 | -4.87441 | 16965 ft | 423 kts | 43° |
| 2026-05-06 17:29 | 55.17905 | -4.83887 | 16785 ft | 412 kts | 42° |
| 2026-05-06 17:29 | 55.19946 | -4.80395 | 16379 ft | 409 kts | 42° |
| 2026-05-06 17:29 | 55.21951 | -4.76976 | 15940 ft | 407 kts | 42° |
| 2026-05-06 17:29 | 55.23969 | -4.73544 | 15683 ft | 397 kts | 42° |
| 2026-05-06 17:30 | 55.25906 | -4.70254 | 15573 ft | 380 kts | 42° |
| 2026-05-06 17:30 | 55.27764 | -4.67099 | 15482 ft | 365 kts | 42° |
| 2026-05-06 17:30 | 55.29558 | -4.64046 | 15277 ft | 354 kts | 42° |
| 2026-05-06 17:30 | 55.31321 | -4.61042 | 14754 ft | 350 kts | 42° |
| 2026-05-06 17:31 | 55.33052 | -4.58081 | 14266 ft | 345 kts | 42° |
| 2026-05-06 17:31 | 55.34755 | -4.55165 | 13784 ft | 339 kts | 42° |
| 2026-05-06 17:31 | 55.36433 | -4.52289 | 13241 ft | 335 kts | 43° |
| 2026-05-06 17:31 | 55.38069 | -4.49484 | 12714 ft | 331 kts | 43° |
| 2026-05-06 17:32 | 55.39702 | -4.46683 | 12191 ft | 326 kts | 43° |
| 2026-05-06 17:32 | 55.41316 | -4.43910 | 11671 ft | 322 kts | 43° |
| 2026-05-06 17:32 | 55.42909 | -4.41170 | 11157 ft | 318 kts | 43° |
| 2026-05-06 17:32 | 55.44483 | -4.38461 | 10657 ft | 315 kts | 44° |
| 2026-05-06 17:33 | 55.46042 | -4.35773 | 10172 ft | 312 kts | 44° |
| 2026-05-06 17:33 | 55.47581 | -4.33115 | 9647 ft | 309 kts | 44° |
| 2026-05-06 17:33 | 55.49106 | -4.30480 | 9134 ft | 304 kts | 44° |
| 2026-05-06 17:33 | 55.50594 | -4.27905 | 8613 ft | 296 kts | 44° |
| 2026-05-06 17:34 | 55.52057 | -4.25371 | 8079 ft | 292 kts | 44° |
| 2026-05-06 17:34 | 55.53480 | -4.22904 | 7594 ft | 281 kts | 44° |
| 2026-05-06 17:34 | 55.54851 | -4.20524 | 7075 ft | 272 kts | 44° |
| 2026-05-06 17:34 | 55.56176 | -4.18221 | 6575 ft | 263 kts | 45° |
| 2026-05-06 17:35 | 55.57437 | -4.16029 | 6116 ft | 252 kts | 45° |
| 2026-05-06 17:35 | 55.58638 | -4.13941 | 5980 ft | 232 kts | 45° |
| 2026-05-06 17:35 | 55.59738 | -4.12026 | 5962 ft | 213 kts | 45° |
| 2026-05-06 17:36 | 55.61759 | -4.08500 | 5982 ft | 201 kts | 46° |
| 2026-05-06 17:36 | 55.62750 | -4.06768 | 5987 ft | 200 kts | 46° |
| 2026-05-06 17:36 | 55.63739 | -4.05038 | 5994 ft | 199 kts | 46° |
| 2026-05-06 17:36 | 55.64725 | -4.03313 | 5983 ft | 199 kts | 46° |
| 2026-05-06 17:37 | 55.65709 | -4.01589 | 5988 ft | 199 kts | 45° |
| 2026-05-06 17:37 | 55.66677 | -3.99894 | 5991 ft | 200 kts | 46° |
| 2026-05-06 17:37 | 55.67662 | -3.98167 | 5985 ft | 201 kts | 45° |
| 2026-05-06 17:37 | 55.68643 | -3.96444 | 5984 ft | 202 kts | 46° |
| 2026-05-06 17:38 | 55.69638 | -3.94696 | 5993 ft | 202 kts | 46° |
| 2026-05-06 17:38 | 55.70632 | -3.92950 | 5957 ft | 201 kts | 45° |
| 2026-05-06 17:38 | 55.71687 | -3.91096 | 5294 ft | 221 kts | 45° |
| 2026-05-06 17:38 | 55.72744 | -3.89236 | 5153 ft | 206 kts | 45° |
| 2026-05-06 17:39 | 55.73737 | -3.87487 | 4939 ft | 199 kts | 45° |
| 2026-05-06 17:39 | 55.74713 | -3.85767 | 4616 ft | 197 kts | 45° |
| 2026-05-06 17:39 | 55.75681 | -3.84059 | 4259 ft | 196 kts | 46° |
| 2026-05-06 17:39 | 55.76645 | -3.82357 | 3920 ft | 195 kts | 46° |
| 2026-05-06 17:40 | 55.77603 | -3.80663 | 3601 ft | 193 kts | 46° |
| 2026-05-06 17:40 | 55.78552 | -3.78987 | 3277 ft | 192 kts | 46° |
| 2026-05-06 17:40 | 55.79495 | -3.77319 | 3026 ft | 190 kts | 46° |
| 2026-05-06 17:40 | 55.80449 | -3.75629 | 3008 ft | 195 kts | 46° |
| 2026-05-06 17:41 | 55.81394 | -3.73955 | 2996 ft | 194 kts | 46° |
| 2026-05-06 17:41 | 55.82340 | -3.72278 | 2987 ft | 191 kts | 46° |
| 2026-05-06 17:41 | 55.83282 | -3.70609 | 2994 ft | 191 kts | 46° |
| 2026-05-06 17:41 | 55.84196 | -3.68892 | 2995 ft | 191 kts | 53° |
| 2026-05-06 17:42 | 55.84964 | -3.66968 | 2990 ft | 190 kts | 59° |
| 2026-05-06 17:42 | 55.85659 | -3.64973 | 2988 ft | 189 kts | 61° |
| 2026-05-06 17:42 | 55.86335 | -3.62969 | 2997 ft | 189 kts | 61° |
| 2026-05-06 17:42 | 55.87010 | -3.60956 | 2990 ft | 191 kts | 61° |
| 2026-05-06 17:43 | 55.87701 | -3.58896 | 2810 ft | 196 kts | 61° |
| 2026-05-06 17:43 | 55.88401 | -3.56816 | 2535 ft | 194 kts | 61° |
| 2026-05-06 17:43 | 55.89087 | -3.54775 | 2266 ft | 189 kts | 60° |
| 2026-05-06 17:43 | 55.89740 | -3.52837 | 2037 ft | 175 kts | 61° |
| 2026-05-06 17:44 | 55.90338 | -3.51061 | 1787 ft | 160 kts | 61° |
| 2026-05-06 17:44 | 55.90879 | -3.49453 | 1565 ft | 150 kts | 61° |
| 2026-05-06 17:44 | 55.91412 | -3.47871 | 1376 ft | 148 kts | 61° |
| 2026-05-06 17:44 | 55.91938 | -3.46311 | 1153 ft | 144 kts | 61° |
| 2026-05-06 17:45 | 55.92447 | -3.44799 | 959 ft | 140 kts | 60° |
| 2026-05-06 17:45 | 55.92947 | -3.43308 | 759 ft | 140 kts | 60° |
| 2026-05-06 17:45 | 55.93449 | -3.41823 | 580 ft | 139 kts | 60° |
| 2026-05-06 17:45 | 55.93949 | -3.40357 | 373 ft | 138 kts | 58° |
| 2026-05-06 17:46 | 55.94437 | -3.38908 | 172 ft | 134 kts | 58° |
| 2026-05-06 17:46 | 55.94897 | -3.37552 | 112 ft | 114 kts | 58° |
| 2026-05-06 17:46 | 55.95248 | -3.36520 | 111 ft | 80 kts | 59° |
| 2026-05-06 17:46 | 55.95412 | -3.36035 | 109 ft | 60 kts | 59° |
| 2026-05-06 17:47 | 55.95567 | -3.35560 | 112 ft | 14 kts | 82° |
| 2026-05-06 17:47 | 55.95533 | -3.35477 | 113 ft | 13 kts | 147° |
| 2026-05-06 17:47 | 55.95474 | -3.35413 | 114 ft | 1 kts | 149° |
| 2026-05-06 17:47 | 55.95469 | -3.35408 | 114 ft | 1 kts | 151° |
| 2026-05-06 17:48 | 55.95454 | -3.35402 | 112 ft | 5 kts | 174° |
| 2026-05-06 17:48 | 55.95427 | -3.35420 | 112 ft | 8 kts | 222° |
| 2026-05-06 17:48 | 55.95386 | -3.35538 | 113 ft | 13 kts | 239° |
| 2026-05-06 17:48 | 55.95339 | -3.35674 | 115 ft | 13 kts | 239° |
| 2026-05-06 17:49 | 55.95294 | -3.35808 | 113 ft | 12 kts | 239° |
| 2026-05-06 17:49 | 55.95250 | -3.35938 | 113 ft | 12 kts | 239° |
| 2026-05-06 17:49 | 55.95207 | -3.36064 | 114 ft | 12 kts | 239° |
| 2026-05-06 17:49 | 55.95157 | -3.36172 | 115 ft | 11 kts | 196° |
| 2026-05-06 17:50 | 55.95109 | -3.36080 | 113 ft | 11 kts | 108° |
| 2026-05-06 17:50 | 55.95086 | -3.35967 | 115 ft | 8 kts | 115° |
| 2026-05-06 17:50 | 55.95050 | -3.35915 | 114 ft | 6 kts | 194° |
| 2026-05-06 17:50 | 55.95028 | -3.35976 | 115 ft | 6 kts | 244° |
| 2026-05-06 17:51 | 55.95016 | -3.36019 | 114 ft | 0 kts | 244° |
| 2026-05-06 17:51 | 55.95015 | -3.36022 | 114 ft | 0 kts | 244° |